sensor_id;sensor_type;location;lat;lon;timestamp;P1;durP1;ratioP1;P2;durP2;ratioP2
53036;SDS011;38924;52.134;4.666;2023-12-22T00:01:30;27.75;;;3.63;;
53036;SDS011;38924;52.134;4.666;2023-12-22T00:03:56;21.20;;;3.20;;
53036;SDS011;38924;52.134;4.666;2023-12-22T00:06:22;30.77;;;5.45;;
53036;SDS011;38924;52.134;4.666;2023-12-22T00:08:47;36.42;;;5.07;;
53036;SDS011;38924;52.134;4.666;2023-12-22T00:11:13;23.35;;;3.88;;
53036;SDS011;38924;52.134;4.666;2023-12-22T00:13:39;28.58;;;4.72;;
53036;SDS011;38924;52.134;4.666;2023-12-22T00:16:04;25.52;;;3.25;;
53036;SDS011;38924;52.134;4.666;2023-12-22T00:18:30;33.10;;;3.40;;
53036;SDS011;38924;52.134;4.666;2023-12-22T00:20:56;23.75;;;3.35;;
53036;SDS011;38924;52.134;4.666;2023-12-22T00:23:24;30.75;;;3.70;;
53036;SDS011;38924;52.134;4.666;2023-12-22T00:25:50;28.08;;;5.43;;
53036;SDS011;38924;52.134;4.666;2023-12-22T00:28:15;31.90;;;5.20;;
53036;SDS011;38924;52.134;4.666;2023-12-22T00:30:41;21.30;;;3.70;;
53036;SDS011;38924;52.134;4.666;2023-12-22T00:33:07;29.52;;;4.60;;
53036;SDS011;38924;52.134;4.666;2023-12-22T00:35:32;25.02;;;4.50;;
53036;SDS011;38924;52.134;4.666;2023-12-22T00:38:01;24.90;;;3.17;;
53036;SDS011;38924;52.134;4.666;2023-12-22T00:40:26;21.50;;;3.97;;
53036;SDS011;38924;52.134;4.666;2023-12-22T00:42:52;29.13;;;3.88;;
53036;SDS011;38924;52.134;4.666;2023-12-22T00:45:18;33.40;;;4.03;;
53036;SDS011;38924;52.134;4.666;2023-12-22T00:47:43;26.58;;;4.97;;
53036;SDS011;38924;52.134;4.666;2023-12-22T00:50:09;23.52;;;5.35;;
53036;SDS011;38924;52.134;4.666;2023-12-22T00:52:35;33.90;;;3.60;;
53036;SDS011;38924;52.134;4.666;2023-12-22T00:55:00;24.63;;;3.65;;
53036;SDS011;38924;52.134;4.666;2023-12-22T00:57:28;24.65;;;4.32;;
53036;SDS011;38924;52.134;4.666;2023-12-22T00:59:55;28.58;;;4.28;;
53036;SDS011;38924;52.134;4.666;2023-12-22T01:02:21;24.40;;;4.30;;
53036;SDS011;38924;52.134;4.666;2023-12-22T01:04:46;28.63;;;3.90;;
53036;SDS011;38924;52.134;4.666;2023-12-22T01:07:12;27.38;;;4.13;;
53036;SDS011;38924;52.134;4.666;2023-12-22T01:09:39;33.90;;;4.68;;
53036;SDS011;38924;52.134;4.666;2023-12-22T01:12:05;24.13;;;3.03;;
53036;SDS011;38924;52.134;4.666;2023-12-22T01:14:32;33.22;;;4.65;;
53036;SDS011;38924;52.134;4.666;2023-12-22T01:16:57;40.35;;;5.85;;
53036;SDS011;38924;52.134;4.666;2023-12-22T01:19:24;32.67;;;4.88;;
53036;SDS011;38924;52.134;4.666;2023-12-22T01:21:50;24.48;;;4.78;;
53036;SDS011;38924;52.134;4.666;2023-12-22T01:24:16;31.00;;;6.05;;
53036;SDS011;38924;52.134;4.666;2023-12-22T01:26:41;37.40;;;5.60;;
53036;SDS011;38924;52.134;4.666;2023-12-22T01:29:07;34.67;;;5.78;;
53036;SDS011;38924;52.134;4.666;2023-12-22T01:31:33;30.83;;;5.57;;
53036;SDS011;38924;52.134;4.666;2023-12-22T01:33:58;22.98;;;4.47;;
53036;SDS011;38924;52.134;4.666;2023-12-22T01:36:24;28.05;;;3.38;;
53036;SDS011;38924;52.134;4.666;2023-12-22T01:38:49;26.80;;;4.32;;
53036;SDS011;38924;52.134;4.666;2023-12-22T01:41:15;25.88;;;3.35;;
53036;SDS011;38924;52.134;4.666;2023-12-22T01:43:41;31.65;;;5.28;;
53036;SDS011;38924;52.134;4.666;2023-12-22T01:46:07;24.38;;;5.00;;
53036;SDS011;38924;52.134;4.666;2023-12-22T01:48:36;33.65;;;4.43;;
53036;SDS011;38924;52.134;4.666;2023-12-22T01:51:02;33.58;;;4.15;;
53036;SDS011;38924;52.134;4.666;2023-12-22T01:53:29;31.55;;;4.13;;
53036;SDS011;38924;52.134;4.666;2023-12-22T01:55:55;34.25;;;4.05;;
53036;SDS011;38924;52.134;4.666;2023-12-22T01:58:24;26.23;;;4.00;;
53036;SDS011;38924;52.134;4.666;2023-12-22T02:00:50;23.92;;;4.68;;
53036;SDS011;38924;52.134;4.666;2023-12-22T02:03:17;24.65;;;4.22;;
53036;SDS011;38924;52.134;4.666;2023-12-22T02:05:46;25.35;;;3.67;;
53036;SDS011;38924;52.134;4.666;2023-12-22T02:08:11;29.88;;;3.60;;
53036;SDS011;38924;52.134;4.666;2023-12-22T02:10:38;26.83;;;4.20;;
53036;SDS011;38924;52.134;4.666;2023-12-22T02:13:04;30.30;;;3.53;;
53036;SDS011;38924;52.134;4.666;2023-12-22T02:15:30;23.08;;;3.50;;
53036;SDS011;38924;52.134;4.666;2023-12-22T02:17:59;27.08;;;5.00;;
53036;SDS011;38924;52.134;4.666;2023-12-22T02:20:26;22.27;;;3.22;;
53036;SDS011;38924;52.134;4.666;2023-12-22T02:22:53;27.15;;;4.13;;
53036;SDS011;38924;52.134;4.666;2023-12-22T02:25:18;31.13;;;5.70;;
53036;SDS011;38924;52.134;4.666;2023-12-22T02:27:45;27.80;;;3.05;;
53036;SDS011;38924;52.134;4.666;2023-12-22T02:30:14;28.13;;;4.60;;
53036;SDS011;38924;52.134;4.666;2023-12-22T02:32:47;30.45;;;4.28;;
53036;SDS011;38924;52.134;4.666;2023-12-22T02:35:17;28.20;;;4.43;;
53036;SDS011;38924;52.134;4.666;2023-12-22T02:37:47;30.55;;;4.07;;
53036;SDS011;38924;52.134;4.666;2023-12-22T02:40:14;17.92;;;3.10;;
53036;SDS011;38924;52.134;4.666;2023-12-22T02:42:40;26.60;;;5.38;;
53036;SDS011;38924;52.134;4.666;2023-12-22T02:45:06;30.83;;;4.63;;
53036;SDS011;38924;52.134;4.666;2023-12-22T02:47:32;25.45;;;4.10;;
53036;SDS011;38924;52.134;4.666;2023-12-22T02:49:58;22.58;;;4.57;;
53036;SDS011;38924;52.134;4.666;2023-12-22T02:52:24;23.88;;;4.05;;
53036;SDS011;38924;52.134;4.666;2023-12-22T02:54:50;21.45;;;3.65;;
53036;SDS011;38924;52.134;4.666;2023-12-22T02:57:16;22.95;;;3.60;;
53036;SDS011;38924;52.134;4.666;2023-12-22T02:59:41;35.67;;;4.47;;
53036;SDS011;38924;52.134;4.666;2023-12-22T03:02:07;20.35;;;4.07;;
53036;SDS011;38924;52.134;4.666;2023-12-22T03:04:33;31.42;;;4.18;;
53036;SDS011;38924;52.134;4.666;2023-12-22T03:06:58;25.92;;;3.40;;
53036;SDS011;38924;52.134;4.666;2023-12-22T03:09:24;31.38;;;3.63;;
53036;SDS011;38924;52.134;4.666;2023-12-22T03:11:50;28.85;;;4.20;;
53036;SDS011;38924;52.134;4.666;2023-12-22T03:14:19;22.00;;;3.13;;
53036;SDS011;38924;52.134;4.666;2023-12-22T03:16:48;26.83;;;3.60;;
53036;SDS011;38924;52.134;4.666;2023-12-22T03:19:14;24.80;;;4.47;;
53036;SDS011;38924;52.134;4.666;2023-12-22T03:21:39;31.30;;;4.63;;
53036;SDS011;38924;52.134;4.666;2023-12-22T03:24:05;27.38;;;4.35;;
53036;SDS011;38924;52.134;4.666;2023-12-22T03:26:31;25.92;;;4.38;;
53036;SDS011;38924;52.134;4.666;2023-12-22T03:28:56;25.45;;;4.50;;
53036;SDS011;38924;52.134;4.666;2023-12-22T03:31:22;36.13;;;4.85;;
53036;SDS011;38924;52.134;4.666;2023-12-22T03:33:48;31.80;;;4.68;;
53036;SDS011;38924;52.134;4.666;2023-12-22T03:36:13;32.75;;;4.22;;
53036;SDS011;38924;52.134;4.666;2023-12-22T03:38:39;34.05;;;3.42;;
53036;SDS011;38924;52.134;4.666;2023-12-22T03:41:05;33.20;;;4.63;;
53036;SDS011;38924;52.134;4.666;2023-12-22T03:43:30;15.23;;;3.60;;
53036;SDS011;38924;52.134;4.666;2023-12-22T03:45:59;27.45;;;4.32;;
53036;SDS011;38924;52.134;4.666;2023-12-22T03:48:26;25.77;;;4.25;;
53036;SDS011;38924;52.134;4.666;2023-12-22T03:50:51;24.63;;;4.72;;
53036;SDS011;38924;52.134;4.666;2023-12-22T03:53:17;35.67;;;4.60;;
53036;SDS011;38924;52.134;4.666;2023-12-22T03:55:43;30.23;;;4.80;;
53036;SDS011;38924;52.134;4.666;2023-12-22T03:58:14;34.08;;;5.85;;
53036;SDS011;38924;52.134;4.666;2023-12-22T04:00:43;23.23;;;3.22;;
53036;SDS011;38924;52.134;4.666;2023-12-22T04:03:08;26.50;;;3.60;;
53036;SDS011;38924;52.134;4.666;2023-12-22T04:05:34;18.77;;;3.13;;
53036;SDS011;38924;52.134;4.666;2023-12-22T04:07:59;26.00;;;4.13;;
53036;SDS011;38924;52.134;4.666;2023-12-22T04:10:25;27.40;;;3.97;;
53036;SDS011;38924;52.134;4.666;2023-12-22T04:12:52;26.13;;;4.03;;
53036;SDS011;38924;52.134;4.666;2023-12-22T04:15:17;25.02;;;3.85;;
53036;SDS011;38924;52.134;4.666;2023-12-22T04:17:46;27.92;;;4.15;;
53036;SDS011;38924;52.134;4.666;2023-12-22T04:20:11;20.92;;;3.60;;
53036;SDS011;38924;52.134;4.666;2023-12-22T04:22:38;33.75;;;4.15;;
53036;SDS011;38924;52.134;4.666;2023-12-22T04:25:04;26.20;;;4.28;;
53036;SDS011;38924;52.134;4.666;2023-12-22T04:27:31;25.55;;;3.85;;
53036;SDS011;38924;52.134;4.666;2023-12-22T04:30:00;19.40;;;2.88;;
53036;SDS011;38924;52.134;4.666;2023-12-22T04:32:26;26.50;;;3.25;;
53036;SDS011;38924;52.134;4.666;2023-12-22T04:34:51;21.80;;;3.45;;
53036;SDS011;38924;52.134;4.666;2023-12-22T04:37:17;15.93;;;3.05;;
53036;SDS011;38924;52.134;4.666;2023-12-22T04:39:43;23.48;;;4.40;;
53036;SDS011;38924;52.134;4.666;2023-12-22T04:42:08;27.17;;;3.75;;
53036;SDS011;38924;52.134;4.666;2023-12-22T04:44:34;24.17;;;3.55;;
53036;SDS011;38924;52.134;4.666;2023-12-22T04:47:00;21.25;;;2.85;;
53036;SDS011;38924;52.134;4.666;2023-12-22T04:49:25;26.50;;;3.20;;
53036;SDS011;38924;52.134;4.666;2023-12-22T04:51:54;21.33;;;3.35;;
53036;SDS011;38924;52.134;4.666;2023-12-22T04:54:22;21.85;;;3.30;;
53036;SDS011;38924;52.134;4.666;2023-12-22T04:56:48;26.10;;;4.32;;
53036;SDS011;38924;52.134;4.666;2023-12-22T04:59:14;18.13;;;3.20;;
53036;SDS011;38924;52.134;4.666;2023-12-22T05:01:39;22.13;;;4.07;;
53036;SDS011;38924;52.134;4.666;2023-12-22T05:04:05;29.73;;;4.00;;
53036;SDS011;38924;52.134;4.666;2023-12-22T05:06:31;24.20;;;3.97;;
53036;SDS011;38924;52.134;4.666;2023-12-22T05:08:57;28.73;;;4.10;;
53036;SDS011;38924;52.134;4.666;2023-12-22T05:11:22;25.38;;;3.42;;
53036;SDS011;38924;52.134;4.666;2023-12-22T05:13:48;23.08;;;3.50;;
53036;SDS011;38924;52.134;4.666;2023-12-22T05:16:14;19.63;;;3.33;;
53036;SDS011;38924;52.134;4.666;2023-12-22T05:18:40;23.48;;;3.00;;
53036;SDS011;38924;52.134;4.666;2023-12-22T05:21:05;21.02;;;3.70;;
53036;SDS011;38924;52.134;4.666;2023-12-22T05:23:31;25.67;;;3.97;;
53036;SDS011;38924;52.134;4.666;2023-12-22T05:25:58;26.50;;;3.47;;
53036;SDS011;38924;52.134;4.666;2023-12-22T05:28:23;29.58;;;4.90;;
53036;SDS011;38924;52.134;4.666;2023-12-22T05:30:49;23.90;;;3.88;;
53036;SDS011;38924;52.134;4.666;2023-12-22T05:33:15;33.08;;;4.07;;
53036;SDS011;38924;52.134;4.666;2023-12-22T05:35:40;37.10;;;4.68;;
53036;SDS011;38924;52.134;4.666;2023-12-22T05:38:06;30.15;;;3.80;;
53036;SDS011;38924;52.134;4.666;2023-12-22T05:40:32;27.17;;;4.85;;
53036;SDS011;38924;52.134;4.666;2023-12-22T05:43:00;23.00;;;4.40;;
53036;SDS011;38924;52.134;4.666;2023-12-22T05:45:26;32.50;;;4.53;;
53036;SDS011;38924;52.134;4.666;2023-12-22T05:47:51;26.80;;;4.43;;
53036;SDS011;38924;52.134;4.666;2023-12-22T05:50:20;27.13;;;4.28;;
53036;SDS011;38924;52.134;4.666;2023-12-22T05:52:45;22.90;;;4.10;;
53036;SDS011;38924;52.134;4.666;2023-12-22T05:55:11;39.83;;;6.28;;
53036;SDS011;38924;52.134;4.666;2023-12-22T05:57:37;32.50;;;5.05;;
53036;SDS011;38924;52.134;4.666;2023-12-22T06:00:03;32.60;;;5.40;;
53036;SDS011;38924;52.134;4.666;2023-12-22T06:02:33;37.88;;;6.70;;
53036;SDS011;38924;52.134;4.666;2023-12-22T06:04:59;35.92;;;5.80;;
53036;SDS011;38924;52.134;4.666;2023-12-22T06:07:24;36.42;;;5.53;;
53036;SDS011;38924;52.134;4.666;2023-12-22T06:09:50;45.22;;;5.65;;
53036;SDS011;38924;52.134;4.666;2023-12-22T06:12:16;36.47;;;6.88;;
53036;SDS011;38924;52.134;4.666;2023-12-22T06:14:41;34.95;;;5.88;;
53036;SDS011;38924;52.134;4.666;2023-12-22T06:17:07;31.38;;;6.07;;
53036;SDS011;38924;52.134;4.666;2023-12-22T06:19:34;44.00;;;6.53;;
53036;SDS011;38924;52.134;4.666;2023-12-22T06:22:00;47.20;;;6.22;;
53036;SDS011;38924;52.134;4.666;2023-12-22T06:24:26;35.03;;;5.50;;
53036;SDS011;38924;52.134;4.666;2023-12-22T06:26:51;47.90;;;6.68;;
53036;SDS011;38924;52.134;4.666;2023-12-22T06:29:17;51.15;;;8.55;;
53036;SDS011;38924;52.134;4.666;2023-12-22T06:31:43;43.75;;;7.63;;
53036;SDS011;38924;52.134;4.666;2023-12-22T06:34:11;39.03;;;7.57;;
53036;SDS011;38924;52.134;4.666;2023-12-22T06:36:37;48.75;;;8.20;;
53036;SDS011;38924;52.134;4.666;2023-12-22T06:39:02;36.55;;;7.05;;
53036;SDS011;38924;52.134;4.666;2023-12-22T06:41:31;38.92;;;6.55;;
53036;SDS011;38924;52.134;4.666;2023-12-22T06:43:57;45.28;;;8.05;;
53036;SDS011;38924;52.134;4.666;2023-12-22T06:46:27;57.90;;;9.10;;
53036;SDS011;38924;52.134;4.666;2023-12-22T06:48:53;49.40;;;7.20;;
53036;SDS011;38924;52.134;4.666;2023-12-22T06:51:26;48.38;;;8.63;;
53036;SDS011;38924;52.134;4.666;2023-12-22T06:53:52;57.33;;;7.32;;
53036;SDS011;38924;52.134;4.666;2023-12-22T06:56:24;48.38;;;7.65;;
53036;SDS011;38924;52.134;4.666;2023-12-22T06:58:51;48.47;;;7.47;;
53036;SDS011;38924;52.134;4.666;2023-12-22T07:01:17;51.10;;;7.80;;
53036;SDS011;38924;52.134;4.666;2023-12-22T07:03:44;45.42;;;7.60;;
53036;SDS011;38924;52.134;4.666;2023-12-22T07:06:09;57.05;;;8.43;;
53036;SDS011;38924;52.134;4.666;2023-12-22T07:08:37;56.25;;;8.15;;
53036;SDS011;38924;52.134;4.666;2023-12-22T07:11:04;52.53;;;8.75;;
53036;SDS011;38924;52.134;4.666;2023-12-22T07:13:30;49.08;;;7.10;;
53036;SDS011;38924;52.134;4.666;2023-12-22T07:15:55;58.38;;;9.13;;
53036;SDS011;38924;52.134;4.666;2023-12-22T07:18:21;37.53;;;7.10;;
53036;SDS011;38924;52.134;4.666;2023-12-22T07:20:47;47.25;;;7.50;;
53036;SDS011;38924;52.134;4.666;2023-12-22T07:23:12;41.17;;;6.50;;
53036;SDS011;38924;52.134;4.666;2023-12-22T07:25:38;48.72;;;6.45;;
53036;SDS011;38924;52.134;4.666;2023-12-22T07:28:04;50.63;;;7.95;;
53036;SDS011;38924;52.134;4.666;2023-12-22T07:30:30;31.77;;;6.22;;
53036;SDS011;38924;52.134;4.666;2023-12-22T07:32:56;37.15;;;5.57;;
53036;SDS011;38924;52.134;4.666;2023-12-22T07:35:21;44.10;;;6.38;;
53036;SDS011;38924;52.134;4.666;2023-12-22T07:37:48;37.25;;;5.55;;
53036;SDS011;38924;52.134;4.666;2023-12-22T07:40:13;33.75;;;6.22;;
53036;SDS011;38924;52.134;4.666;2023-12-22T07:42:39;30.63;;;6.82;;
53036;SDS011;38924;52.134;4.666;2023-12-22T07:45:05;46.75;;;6.40;;
53036;SDS011;38924;52.134;4.666;2023-12-22T07:47:31;34.65;;;6.28;;
53036;SDS011;38924;52.134;4.666;2023-12-22T07:49:57;36.38;;;6.05;;
53036;SDS011;38924;52.134;4.666;2023-12-22T07:52:23;41.17;;;6.65;;
53036;SDS011;38924;52.134;4.666;2023-12-22T07:54:48;41.80;;;7.65;;
53036;SDS011;38924;52.134;4.666;2023-12-22T07:57:14;41.33;;;6.38;;
53036;SDS011;38924;52.134;4.666;2023-12-22T07:59:40;42.65;;;6.18;;
53036;SDS011;38924;52.134;4.666;2023-12-22T08:02:05;29.88;;;5.45;;
53036;SDS011;38924;52.134;4.666;2023-12-22T08:04:31;38.22;;;4.93;;
53036;SDS011;38924;52.134;4.666;2023-12-22T08:06:57;30.13;;;5.90;;
53036;SDS011;38924;52.134;4.666;2023-12-22T08:09:23;29.48;;;4.22;;
53036;SDS011;38924;52.134;4.666;2023-12-22T08:11:49;33.60;;;5.35;;
53036;SDS011;38924;52.134;4.666;2023-12-22T08:14:20;44.58;;;6.93;;
53036;SDS011;38924;52.134;4.666;2023-12-22T08:16:48;34.63;;;4.97;;
53036;SDS011;38924;52.134;4.666;2023-12-22T08:19:13;25.40;;;6.15;;
53036;SDS011;38924;52.134;4.666;2023-12-22T08:21:39;28.58;;;3.65;;
53036;SDS011;38924;52.134;4.666;2023-12-22T08:24:05;22.67;;;3.88;;
53036;SDS011;38924;52.134;4.666;2023-12-22T08:26:30;29.17;;;4.20;;
53036;SDS011;38924;52.134;4.666;2023-12-22T08:28:57;25.02;;;5.65;;
53036;SDS011;38924;52.134;4.666;2023-12-22T08:31:22;28.90;;;4.18;;
53036;SDS011;38924;52.134;4.666;2023-12-22T08:33:48;36.22;;;5.43;;
53036;SDS011;38924;52.134;4.666;2023-12-22T08:36:14;19.27;;;4.03;;
53036;SDS011;38924;52.134;4.666;2023-12-22T08:38:39;32.42;;;7.13;;
53036;SDS011;38924;52.134;4.666;2023-12-22T08:41:08;25.20;;;4.57;;
53036;SDS011;38924;52.134;4.666;2023-12-22T08:43:36;29.45;;;4.00;;
53036;SDS011;38924;52.134;4.666;2023-12-22T08:46:06;28.65;;;3.72;;
53036;SDS011;38924;52.134;4.666;2023-12-22T08:48:32;26.10;;;5.22;;
53036;SDS011;38924;52.134;4.666;2023-12-22T08:50:58;28.40;;;3.38;;
53036;SDS011;38924;52.134;4.666;2023-12-22T08:53:23;20.38;;;3.25;;
53036;SDS011;38924;52.134;4.666;2023-12-22T08:55:49;18.30;;;2.83;;
53036;SDS011;38924;52.134;4.666;2023-12-22T08:58:15;15.15;;;2.53;;
53036;SDS011;38924;52.134;4.666;2023-12-22T09:00:40;24.02;;;3.28;;
53036;SDS011;38924;52.134;4.666;2023-12-22T09:03:07;21.08;;;2.20;;
53036;SDS011;38924;52.134;4.666;2023-12-22T09:05:32;17.33;;;2.58;;
53036;SDS011;38924;52.134;4.666;2023-12-22T09:07:58;15.00;;;2.53;;
53036;SDS011;38924;52.134;4.666;2023-12-22T09:10:23;19.23;;;3.88;;
53036;SDS011;38924;52.134;4.666;2023-12-22T09:12:50;16.60;;;3.38;;
53036;SDS011;38924;52.134;4.666;2023-12-22T09:15:16;14.45;;;2.67;;
53036;SDS011;38924;52.134;4.666;2023-12-22T09:17:42;18.83;;;1.90;;
53036;SDS011;38924;52.134;4.666;2023-12-22T09:20:08;19.67;;;2.78;;
53036;SDS011;38924;52.134;4.666;2023-12-22T09:22:34;14.93;;;2.55;;
53036;SDS011;38924;52.134;4.666;2023-12-22T09:24:59;16.83;;;2.60;;
53036;SDS011;38924;52.134;4.666;2023-12-22T09:27:25;15.43;;;2.83;;
53036;SDS011;38924;52.134;4.666;2023-12-22T09:29:55;13.40;;;3.10;;
53036;SDS011;38924;52.134;4.666;2023-12-22T09:32:21;23.45;;;3.15;;
53036;SDS011;38924;52.134;4.666;2023-12-22T09:34:46;17.08;;;2.85;;
53036;SDS011;38924;52.134;4.666;2023-12-22T09:37:12;19.73;;;2.47;;
53036;SDS011;38924;52.134;4.666;2023-12-22T09:39:38;11.48;;;2.63;;
53036;SDS011;38924;52.134;4.666;2023-12-22T09:42:04;17.65;;;2.30;;
53036;SDS011;38924;52.134;4.666;2023-12-22T09:44:31;43.50;;;3.67;;
53036;SDS011;38924;52.134;4.666;2023-12-22T09:46:57;16.88;;;3.70;;
53036;SDS011;38924;52.134;4.666;2023-12-22T09:49:24;21.52;;;2.50;;
53036;SDS011;38924;52.134;4.666;2023-12-22T09:51:50;20.15;;;2.80;;
53036;SDS011;38924;52.134;4.666;2023-12-22T09:54:16;15.95;;;2.28;;
53036;SDS011;38924;52.134;4.666;2023-12-22T09:56:42;17.45;;;2.22;;
53036;SDS011;38924;52.134;4.666;2023-12-22T09:59:11;18.13;;;2.63;;
53036;SDS011;38924;52.134;4.666;2023-12-22T10:01:44;15.80;;;3.30;;
53036;SDS011;38924;52.134;4.666;2023-12-22T10:04:19;18.02;;;2.97;;
53036;SDS011;38924;52.134;4.666;2023-12-22T10:06:46;17.50;;;2.72;;
53036;SDS011;38924;52.134;4.666;2023-12-22T10:09:13;17.58;;;2.30;;
53036;SDS011;38924;52.134;4.666;2023-12-22T10:11:45;13.57;;;3.10;;
53036;SDS011;38924;52.134;4.666;2023-12-22T10:14:12;12.75;;;2.50;;
53036;SDS011;38924;52.134;4.666;2023-12-22T10:16:45;10.65;;;1.80;;
53036;SDS011;38924;52.134;4.666;2023-12-22T10:19:12;15.32;;;2.35;;
53036;SDS011;38924;52.134;4.666;2023-12-22T10:21:38;15.40;;;2.63;;
53036;SDS011;38924;52.134;4.666;2023-12-22T10:24:04;15.13;;;2.70;;
53036;SDS011;38924;52.134;4.666;2023-12-22T10:26:32;15.75;;;2.50;;
53036;SDS011;38924;52.134;4.666;2023-12-22T10:29:01;15.85;;;2.30;;
53036;SDS011;38924;52.134;4.666;2023-12-22T10:31:38;13.73;;;2.70;;
53036;SDS011;38924;52.134;4.666;2023-12-22T10:34:03;10.45;;;1.85;;
53036;SDS011;38924;52.134;4.666;2023-12-22T10:36:29;16.98;;;2.05;;
53036;SDS011;38924;52.134;4.666;2023-12-22T10:38:55;15.48;;;3.70;;
53036;SDS011;38924;52.134;4.666;2023-12-22T10:41:20;10.60;;;2.75;;
53036;SDS011;38924;52.134;4.666;2023-12-22T10:43:46;23.73;;;3.30;;
53036;SDS011;38924;52.134;4.666;2023-12-22T10:46:12;15.90;;;2.83;;
53036;SDS011;38924;52.134;4.666;2023-12-22T10:48:39;14.77;;;2.20;;
53036;SDS011;38924;52.134;4.666;2023-12-22T10:51:08;15.43;;;2.20;;
53036;SDS011;38924;52.134;4.666;2023-12-22T10:53:35;13.07;;;2.35;;
53036;SDS011;38924;52.134;4.666;2023-12-22T10:56:01;17.38;;;3.05;;
53036;SDS011;38924;52.134;4.666;2023-12-22T10:58:28;24.60;;;3.20;;
53036;SDS011;38924;52.134;4.666;2023-12-22T11:00:54;16.83;;;2.70;;
53036;SDS011;38924;52.134;4.666;2023-12-22T11:03:19;12.90;;;2.50;;
53036;SDS011;38924;52.134;4.666;2023-12-22T11:05:48;26.05;;;3.08;;
53036;SDS011;38924;52.134;4.666;2023-12-22T11:08:16;27.45;;;4.03;;
53036;SDS011;38924;52.134;4.666;2023-12-22T11:10:42;19.02;;;2.45;;
53036;SDS011;38924;52.134;4.666;2023-12-22T11:13:10;20.63;;;2.78;;
53036;SDS011;38924;52.134;4.666;2023-12-22T11:15:37;16.58;;;2.45;;
53036;SDS011;38924;52.134;4.666;2023-12-22T11:18:03;13.93;;;2.30;;
53036;SDS011;38924;52.134;4.666;2023-12-22T11:20:30;17.60;;;2.60;;
53036;SDS011;38924;52.134;4.666;2023-12-22T11:22:58;13.18;;;2.10;;
53036;SDS011;38924;52.134;4.666;2023-12-22T11:25:25;19.75;;;2.95;;
53036;SDS011;38924;52.134;4.666;2023-12-22T11:27:52;17.85;;;3.28;;
53036;SDS011;38924;52.134;4.666;2023-12-22T11:30:18;19.05;;;2.75;;
53036;SDS011;38924;52.134;4.666;2023-12-22T11:32:44;21.17;;;3.17;;
53036;SDS011;38924;52.134;4.666;2023-12-22T11:35:10;17.85;;;2.55;;
53036;SDS011;38924;52.134;4.666;2023-12-22T11:37:36;15.13;;;2.28;;
53036;SDS011;38924;52.134;4.666;2023-12-22T11:40:03;16.58;;;2.28;;
53036;SDS011;38924;52.134;4.666;2023-12-22T11:42:30;14.68;;;2.63;;
53036;SDS011;38924;52.134;4.666;2023-12-22T11:45:02;19.92;;;3.13;;
53036;SDS011;38924;52.134;4.666;2023-12-22T11:47:28;17.23;;;2.80;;
53036;SDS011;38924;52.134;4.666;2023-12-22T11:49:54;16.40;;;2.50;;
53036;SDS011;38924;52.134;4.666;2023-12-22T11:52:25;18.40;;;3.03;;
53036;SDS011;38924;52.134;4.666;2023-12-22T11:54:54;20.52;;;3.22;;
53036;SDS011;38924;52.134;4.666;2023-12-22T11:57:38;17.08;;;3.47;;
53036;SDS011;38924;52.134;4.666;2023-12-22T12:00:07;19.77;;;2.72;;
53036;SDS011;38924;52.134;4.666;2023-12-22T12:02:40;10.13;;;3.03;;
53036;SDS011;38924;52.134;4.666;2023-12-22T12:05:09;10.20;;;2.05;;
53036;SDS011;38924;52.134;4.666;2023-12-22T12:07:41;12.70;;;2.65;;
53036;SDS011;38924;52.134;4.666;2023-12-22T12:10:11;14.93;;;2.28;;
53036;SDS011;38924;52.134;4.666;2023-12-22T12:12:37;19.58;;;2.70;;
53036;SDS011;38924;52.134;4.666;2023-12-22T12:15:13;12.55;;;3.25;;
53036;SDS011;38924;52.134;4.666;2023-12-22T12:17:42;12.88;;;2.25;;
53036;SDS011;38924;52.134;4.666;2023-12-22T12:20:11;20.98;;;2.95;;
53036;SDS011;38924;52.134;4.666;2023-12-22T12:22:37;16.38;;;2.80;;
53036;SDS011;38924;52.134;4.666;2023-12-22T12:25:10;19.55;;;3.92;;
53036;SDS011;38924;52.134;4.666;2023-12-22T12:27:39;25.15;;;3.00;;
53036;SDS011;38924;52.134;4.666;2023-12-22T12:30:10;24.45;;;2.75;;
53036;SDS011;38924;52.134;4.666;2023-12-22T12:32:36;20.95;;;3.38;;
53036;SDS011;38924;52.134;4.666;2023-12-22T12:35:02;20.73;;;3.17;;
53036;SDS011;38924;52.134;4.666;2023-12-22T12:37:31;21.60;;;4.13;;
53036;SDS011;38924;52.134;4.666;2023-12-22T12:39:57;19.98;;;2.30;;
53036;SDS011;38924;52.134;4.666;2023-12-22T12:42:25;21.67;;;3.30;;
53036;SDS011;38924;52.134;4.666;2023-12-22T12:44:54;17.80;;;2.72;;
53036;SDS011;38924;52.134;4.666;2023-12-22T12:47:19;25.95;;;3.13;;
53036;SDS011;38924;52.134;4.666;2023-12-22T12:49:45;22.58;;;2.90;;
53036;SDS011;38924;52.134;4.666;2023-12-22T12:52:14;20.98;;;3.88;;
53036;SDS011;38924;52.134;4.666;2023-12-22T12:54:40;16.70;;;2.88;;
53036;SDS011;38924;52.134;4.666;2023-12-22T12:57:06;17.77;;;2.72;;
53036;SDS011;38924;52.134;4.666;2023-12-22T12:59:31;19.98;;;3.45;;
53036;SDS011;38924;52.134;4.666;2023-12-22T13:01:57;19.33;;;3.33;;
53036;SDS011;38924;52.134;4.666;2023-12-22T13:04:23;20.05;;;2.75;;
53036;SDS011;38924;52.134;4.666;2023-12-22T13:07:01;19.48;;;3.03;;
53036;SDS011;38924;52.134;4.666;2023-12-22T13:09:31;12.43;;;2.05;;
53036;SDS011;38924;52.134;4.666;2023-12-22T13:11:57;17.48;;;3.00;;
53036;SDS011;38924;52.134;4.666;2023-12-22T13:14:23;23.25;;;3.28;;
53036;SDS011;38924;52.134;4.666;2023-12-22T13:16:52;23.00;;;4.47;;
53036;SDS011;38924;52.134;4.666;2023-12-22T13:19:20;20.60;;;3.05;;
53036;SDS011;38924;52.134;4.666;2023-12-22T13:21:46;28.05;;;4.22;;
53036;SDS011;38924;52.134;4.666;2023-12-22T13:24:13;26.65;;;4.70;;
53036;SDS011;38924;52.134;4.666;2023-12-22T13:26:40;18.88;;;3.63;;
53036;SDS011;38924;52.134;4.666;2023-12-22T13:29:09;19.67;;;2.78;;
53036;SDS011;38924;52.134;4.666;2023-12-22T13:31:38;20.90;;;3.42;;
53036;SDS011;38924;52.134;4.666;2023-12-22T13:34:14;29.38;;;4.00;;
53036;SDS011;38924;52.134;4.666;2023-12-22T13:36:40;20.80;;;3.17;;
53036;SDS011;38924;52.134;4.666;2023-12-22T13:39:08;19.65;;;3.30;;
53036;SDS011;38924;52.134;4.666;2023-12-22T13:41:34;22.13;;;3.58;;
53036;SDS011;38924;52.134;4.666;2023-12-22T13:44:05;17.00;;;3.25;;
53036;SDS011;38924;52.134;4.666;2023-12-22T13:46:31;24.20;;;3.08;;
53036;SDS011;38924;52.134;4.666;2023-12-22T13:48:57;29.40;;;3.13;;
53036;SDS011;38924;52.134;4.666;2023-12-22T13:51:23;19.63;;;3.05;;
53036;SDS011;38924;52.134;4.666;2023-12-22T13:53:49;22.65;;;3.45;;
53036;SDS011;38924;52.134;4.666;2023-12-22T13:56:17;27.58;;;4.45;;
53036;SDS011;38924;52.134;4.666;2023-12-22T13:58:44;23.50;;;3.47;;
53036;SDS011;38924;52.134;4.666;2023-12-22T14:01:12;26.55;;;2.58;;
53036;SDS011;38924;52.134;4.666;2023-12-22T14:03:38;25.50;;;3.80;;
53036;SDS011;38924;52.134;4.666;2023-12-22T14:06:04;20.00;;;3.50;;
53036;SDS011;38924;52.134;4.666;2023-12-22T14:08:33;27.95;;;4.32;;
53036;SDS011;38924;52.134;4.666;2023-12-22T14:10:59;18.35;;;3.08;;
53036;SDS011;38924;52.134;4.666;2023-12-22T14:13:24;30.40;;;4.32;;
53036;SDS011;38924;52.134;4.666;2023-12-22T14:15:50;33.47;;;4.55;;
53036;SDS011;38924;52.134;4.666;2023-12-22T14:18:16;30.95;;;4.63;;
53036;SDS011;38924;52.134;4.666;2023-12-22T14:20:41;25.55;;;3.88;;
53036;SDS011;38924;52.134;4.666;2023-12-22T14:23:11;18.45;;;3.08;;
53036;SDS011;38924;52.134;4.666;2023-12-22T14:25:42;20.08;;;3.35;;
53036;SDS011;38924;52.134;4.666;2023-12-22T14:28:08;23.77;;;3.78;;
53036;SDS011;38924;52.134;4.666;2023-12-22T14:30:33;23.38;;;3.65;;